createdAt,value
2023-02-11T00:01:01.576Z,89994.75
2023-02-11T00:03:46.591Z,89990.31
2023-02-11T00:06:31.704Z,89989.16
2023-02-11T00:09:16.616Z,89990.06
2023-02-11T00:12:01.414Z,89983.59
2023-02-11T00:14:46.410Z,89984.03
2023-02-11T00:17:31.184Z,89987.63
2023-02-11T00:20:16.058Z,89980.44
2023-02-11T00:23:00.772Z,89974.28
2023-02-11T00:25:45.552Z,89979.53
2023-02-11T00:28:30.285Z,89982.22
2023-02-11T00:31:15.232Z,89979.06
2023-02-11T00:34:00.321Z,89973.81
2023-02-11T00:36:45.031Z,89986.84
2023-02-11T00:39:30.170Z,89982.41
2023-02-11T00:42:15.284Z,89984.56
2023-02-11T00:45:00.098Z,89972.53
2023-02-11T00:47:44.846Z,89971.19
2023-02-11T00:50:29.528Z,89971.78
2023-02-11T00:53:14.321Z,89969.66
2023-02-11T00:55:58.988Z,89970.75
2023-02-11T00:58:43.753Z,89961.63
2023-02-11T01:01:28.575Z,89960.38
2023-02-11T01:04:13.428Z,89953.75
2023-02-11T01:06:58.298Z,89959.84
2023-02-11T01:09:43.137Z,89961.06
2023-02-11T01:12:27.762Z,89953.91
2023-02-11T01:15:12.611Z,89949.31
2023-02-11T01:17:57.320Z,89947.22
2023-02-11T01:20:42.073Z,89947.81
2023-02-11T01:23:26.682Z,89952.06
2023-02-11T01:26:11.436Z,89943.94
2023-02-11T01:28:56.167Z,89941.06
2023-02-11T01:31:41.076Z,89940.84
2023-02-11T01:34:25.881Z,89946.53
2023-02-11T01:37:10.588Z,89945.13
2023-02-11T01:39:55.334Z,89941.06
2023-02-11T01:42:40.002Z,89938.94
2023-02-11T01:45:24.802Z,89941.41
2023-02-11T01:48:09.569Z,89941.00
2023-02-11T01:50:54.493Z,89942.22
2023-02-11T01:53:39.292Z,89937.41
2023-02-11T01:56:24.106Z,89934.72
2023-02-11T01:59:08.744Z,89946.84
2023-02-11T02:01:53.502Z,89939.88
2023-02-11T02:04:38.134Z,89946.13
2023-02-11T02:07:22.855Z,89933.94
2023-02-11T02:10:07.729Z,89934.13
2023-02-11T02:12:52.478Z,89930.84
2023-02-11T02:15:37.152Z,89922.38
2023-02-11T02:18:21.915Z,89920.75
2023-02-11T02:21:06.827Z,89915.59
2023-02-11T02:23:51.524Z,89915.59
2023-02-11T02:26:36.301Z,89919.31
2023-02-11T02:29:20.990Z,89907.97
2023-02-11T02:32:05.897Z,89909.13
2023-02-11T02:34:50.690Z,89906.78
2023-02-11T02:37:35.439Z,89910.78
2023-02-11T02:40:20.124Z,89895.59
2023-02-11T02:43:04.882Z,89898.66
2023-02-11T02:45:49.967Z,89892.25
2023-02-11T02:48:34.812Z,89885.16
2023-02-11T02:51:19.534Z,89891.25
2023-02-11T02:54:04.150Z,89889.75
2023-02-11T02:56:48.756Z,89892.03
2023-02-11T02:59:33.420Z,89886.59
2023-02-11T03:02:18.424Z,89886.91
2023-02-11T03:05:03.186Z,89889.63
2023-02-11T03:07:47.873Z,89886.78
2023-02-11T03:10:32.710Z,89878.97
2023-02-11T03:13:17.542Z,89873.72
2023-02-11T03:16:02.380Z,89881.03
2023-02-11T03:18:47.858Z,89869.59
2023-02-11T03:21:32.925Z,89874.47
2023-02-11T03:24:17.713Z,89871.16
2023-02-11T03:27:02.391Z,89871.53
2023-02-11T03:29:47.282Z,89875.50
2023-02-11T03:32:32.094Z,89878.34
2023-02-11T03:35:16.896Z,89878.25
2023-02-11T03:38:01.618Z,89873.19
2023-02-11T03:40:46.374Z,89872.22
2023-02-11T03:43:31.044Z,89860.59
2023-02-11T03:46:15.924Z,89858.03
2023-02-11T03:49:00.619Z,89864.63
2023-02-11T03:51:45.382Z,89864.44
2023-02-11T03:54:30.107Z,89872.56
2023-02-11T03:57:14.928Z,89866.28
2023-02-11T03:59:59.774Z,89866.75
2023-02-11T04:02:44.509Z,89875.72
2023-02-11T04:05:29.411Z,89869.06
2023-02-11T04:08:14.055Z,89871.00
2023-02-11T04:10:58.805Z,89871.91
2023-02-11T04:13:43.512Z,89866.47
2023-02-11T04:16:28.240Z,89865.75
2023-02-11T04:19:13.328Z,89858.78
2023-02-11T04:21:58.360Z,89863.13
2023-02-11T04:24:43.000Z,89857.78
2023-02-11T04:27:27.756Z,89857.69
2023-02-11T04:30:12.566Z,89854.16
2023-02-11T04:32:57.166Z,89852.97
2023-02-11T04:35:42.063Z,89858.69
2023-02-11T04:38:26.702Z,89862.53
2023-02-11T04:41:11.686Z,89860.72
2023-02-11T04:43:56.358Z,89863.47
2023-02-11T04:46:41.053Z,89864.78
2023-02-11T04:49:25.772Z,89861.09
2023-02-11T04:52:10.523Z,89860.47
2023-02-11T04:54:55.228Z,89857.50
2023-02-11T04:57:39.968Z,89858.94
2023-02-11T05:00:24.681Z,89852.84
2023-02-11T05:03:09.400Z,89853.16
2023-02-11T05:05:54.235Z,89852.72
2023-02-11T05:08:38.936Z,89846.59
2023-02-11T05:11:23.671Z,89848.47
2023-02-11T05:14:08.328Z,89849.88
2023-02-11T05:16:53.037Z,89844.00
2023-02-11T05:19:37.677Z,89834.59
2023-02-11T05:22:22.400Z,89840.16
2023-02-11T05:25:07.196Z,89837.81
2023-02-11T05:27:51.997Z,89838.28
2023-02-11T05:30:36.823Z,89840.44
2023-02-11T05:33:21.566Z,89838.75
2023-02-11T05:36:06.516Z,89833.09
2023-02-11T05:38:51.172Z,89839.34
2023-02-11T05:41:35.989Z,89827.91
2023-02-11T05:44:20.714Z,89833.31
2023-02-11T05:47:05.497Z,89831.81
2023-02-11T05:49:50.111Z,89831.13
2023-02-11T05:52:34.867Z,89826.25
2023-02-11T05:55:20.069Z,89827.59
2023-02-11T05:58:04.960Z,89826.25
2023-02-11T06:00:49.817Z,89825.66
2023-02-11T06:03:34.665Z,89815.34
2023-02-11T06:06:19.402Z,89820.13
2023-02-11T06:09:03.990Z,89822.59
2023-02-11T06:11:48.843Z,89813.91
2023-02-11T06:14:33.576Z,89815.28
2023-02-11T06:17:18.331Z,89813.09
2023-02-11T06:20:03.093Z,89819.78
2023-02-11T06:22:47.945Z,89814.16
2023-02-11T06:25:32.607Z,89816.16
2023-02-11T06:28:17.345Z,89821.88
2023-02-11T06:31:02.200Z,89815.78
2023-02-11T06:33:47.397Z,89814.22
2023-02-11T06:36:32.239Z,89818.16
2023-02-11T06:39:16.900Z,89811.63
2023-02-11T06:42:01.694Z,89806.94
2023-02-11T06:44:46.506Z,89800.09
2023-02-11T06:47:31.285Z,89802.53
2023-02-11T06:50:15.941Z,89798.38
2023-02-11T06:53:00.734Z,89809.22
2023-02-11T06:55:45.581Z,89806.81
2023-02-11T06:58:30.456Z,89819.28
2023-02-11T07:01:15.166Z,89821.63
2023-02-11T07:03:59.962Z,89821.38
2023-02-11T07:06:44.638Z,89827.78
2023-02-11T07:09:29.281Z,89827.34
2023-02-11T07:12:14.128Z,89822.91
2023-02-11T07:14:58.836Z,89827.38
2023-02-11T07:17:43.615Z,89828.56
2023-02-11T07:20:28.157Z,89828.00
2023-02-11T07:23:13.001Z,89828.56
2023-02-11T07:25:57.559Z,89823.75
2023-02-11T07:28:42.470Z,89825.34
2023-02-11T07:31:27.315Z,89825.34
2023-02-11T07:34:12.488Z,89837.06
2023-02-11T07:36:57.344Z,89844.63
2023-02-11T07:39:42.096Z,89849.38
2023-02-11T07:42:26.996Z,89851.25
2023-02-11T07:45:11.742Z,89846.28
2023-02-11T07:47:56.682Z,89848.50
2023-02-11T07:50:41.344Z,89851.78
2023-02-11T07:53:26.072Z,89851.25
2023-02-11T07:56:10.873Z,89851.44
2023-02-11T07:58:55.607Z,89851.22
2023-02-11T08:01:40.419Z,89845.81
2023-02-11T08:04:25.079Z,89847.53
2023-02-11T08:07:09.902Z,89849.81
2023-02-11T08:09:54.595Z,89857.00
2023-02-11T08:12:39.457Z,89859.19
2023-02-11T08:15:24.075Z,89866.41
2023-02-11T08:18:08.742Z,89868.09
2023-02-11T08:20:53.413Z,89871.16
2023-02-11T08:23:38.174Z,89865.84
2023-02-11T08:26:23.402Z,89872.13
2023-02-11T08:29:08.121Z,89876.00
2023-02-11T08:31:52.944Z,89872.97
2023-02-11T08:34:37.522Z,89874.63
2023-02-11T08:37:22.249Z,89874.81
2023-02-11T08:40:06.949Z,89870.22
2023-02-11T08:42:51.834Z,89868.44
2023-02-11T08:45:36.509Z,89861.19
2023-02-11T08:48:21.394Z,89860.56
2023-02-11T08:51:06.024Z,89868.19
2023-02-11T08:53:50.869Z,89861.25
2023-02-11T08:56:35.664Z,89864.91
2023-02-11T08:59:20.313Z,89871.19
2023-02-11T09:02:05.167Z,89861.69
2023-02-11T09:04:49.845Z,89861.69
2023-02-11T09:07:34.578Z,89859.53
2023-02-11T09:10:19.223Z,89869.31
2023-02-11T09:13:05.194Z,89861.13
2023-02-11T09:15:49.758Z,89864.25
2023-02-11T09:18:34.517Z,89860.34
2023-02-11T09:21:19.248Z,89860.84
2023-02-11T09:24:04.090Z,89852.69
2023-02-11T09:26:48.919Z,89854.88
2023-02-11T09:29:33.598Z,89849.56
2023-02-11T09:32:18.451Z,89850.59
2023-02-11T09:35:03.558Z,89848.22
2023-02-11T09:37:48.384Z,89847.78
2023-02-11T09:40:33.071Z,89850.72
2023-02-11T09:43:17.837Z,89859.66
2023-02-11T09:46:02.743Z,89864.66
2023-02-11T09:48:48.064Z,89852.78
2023-02-11T09:51:33.037Z,89861.44
2023-02-11T09:54:18.123Z,89861.63
2023-02-11T09:57:02.986Z,89868.94
2023-02-11T09:59:47.638Z,89880.97
2023-02-11T10:02:32.418Z,89878.97
2023-02-11T10:05:17.106Z,89876.94
2023-02-11T10:08:02.049Z,89873.94
2023-02-11T10:10:46.781Z,89881.47
2023-02-11T10:13:31.634Z,89883.31
2023-02-11T10:16:16.266Z,89881.84
2023-02-11T10:19:01.129Z,89878.13
2023-02-11T10:21:45.852Z,89879.91
2023-02-11T10:24:30.625Z,89885.25
2023-02-11T10:27:15.265Z,89883.13
2023-02-11T10:30:00.028Z,89883.31
2023-02-11T10:32:44.753Z,89885.59
2023-02-11T10:35:29.693Z,89884.00
2023-02-11T10:38:14.645Z,89883.13
2023-02-11T10:40:59.233Z,89886.63
2023-02-11T10:43:44.202Z,89889.59
2023-02-11T10:46:28.945Z,89889.72
2023-02-11T10:49:13.669Z,89886.44
2023-02-11T10:51:58.445Z,89875.59
2023-02-11T10:54:43.366Z,89879.66
2023-02-11T10:57:28.135Z,89874.63
2023-02-11T11:00:12.774Z,89874.31
2023-02-11T11:02:57.691Z,89876.34
2023-02-11T11:05:42.346Z,89877.31
2023-02-11T11:08:27.194Z,89877.97
2023-02-11T11:11:11.864Z,89868.63
2023-02-11T11:13:56.654Z,89875.88
2023-02-11T11:16:41.250Z,89867.63
2023-02-11T11:19:26.123Z,89858.72
2023-02-11T11:22:10.966Z,89860.94
2023-02-11T11:24:55.715Z,89864.16
2023-02-11T11:27:40.408Z,89870.09
2023-02-11T11:30:25.018Z,89866.94
2023-02-11T11:33:09.925Z,89865.38
2023-02-11T11:35:54.616Z,89855.22
2023-02-11T11:38:39.284Z,89855.53
2023-02-11T11:41:23.981Z,89858.28
2023-02-11T11:44:08.804Z,89851.75
2023-02-11T11:46:53.408Z,89840.84
2023-02-11T11:49:38.123Z,89844.97
2023-02-11T11:52:22.834Z,89832.84
2023-02-11T11:55:07.597Z,89831.50
2023-02-11T11:57:52.332Z,89822.16
2023-02-11T12:00:37.043Z,89832.75
2023-02-11T12:03:21.948Z,89829.31
2023-02-11T12:06:07.187Z,89827.88
2023-02-11T12:08:52.023Z,89827.94
2023-02-11T12:11:36.685Z,89826.09
2023-02-11T12:14:21.632Z,89826.69
2023-02-11T12:17:06.364Z,89823.03
2023-02-11T12:19:51.241Z,89821.13
2023-02-11T12:22:36.080Z,89814.59
2023-02-11T12:25:20.972Z,89813.75
2023-02-11T12:28:05.985Z,89817.69
2023-02-11T12:30:50.960Z,89818.03
2023-02-11T12:33:36.021Z,89817.50
2023-02-11T12:36:20.759Z,89809.97
2023-02-11T12:39:05.586Z,89813.78
2023-02-11T12:41:50.184Z,89815.50
2023-02-11T12:44:34.971Z,89814.28
2023-02-11T12:47:19.724Z,89806.47
2023-02-11T12:50:04.440Z,89802.50
2023-02-11T12:52:49.258Z,89787.63
2023-02-11T12:55:34.086Z,89792.16
2023-02-11T12:58:18.903Z,89781.03
2023-02-11T13:01:03.583Z,89785.75
2023-02-11T13:03:48.514Z,89780.75
2023-02-11T13:06:33.060Z,89782.88
2023-02-11T13:09:17.791Z,89779.84
2023-02-11T13:12:02.625Z,89770.69
2023-02-11T13:14:47.475Z,89771.19
2023-02-11T13:17:32.228Z,89768.59
2023-02-11T13:20:16.956Z,89760.09
2023-02-11T13:23:01.780Z,89762.25
2023-02-11T13:25:46.640Z,89760.59
2023-02-11T13:28:31.619Z,89751.13
2023-02-11T13:31:16.900Z,89753.97
2023-02-11T13:34:02.079Z,89751.13
2023-02-11T13:36:46.822Z,89751.13
2023-02-11T13:39:31.461Z,89753.03
2023-02-11T13:42:16.180Z,89751.81
2023-02-11T13:45:00.969Z,89751.38
2023-02-11T13:47:45.803Z,89746.88
2023-02-11T13:50:30.502Z,89749.22
2023-02-11T13:53:16.071Z,89755.16
2023-02-11T13:56:00.829Z,89754.22
2023-02-11T13:58:45.723Z,89754.66
2023-02-11T14:01:30.523Z,89750.66
2023-02-11T14:04:15.221Z,89754.44
2023-02-11T14:07:00.098Z,89749.00
2023-02-11T14:09:44.960Z,89746.63
2023-02-11T14:12:29.751Z,89740.47
2023-02-11T14:15:14.505Z,89740.22
2023-02-11T14:17:59.281Z,89736.19
2023-02-11T14:20:44.148Z,89733.34
2023-02-11T14:23:28.832Z,89729.09
2023-02-11T14:26:13.655Z,89734.75
2023-02-11T14:28:58.628Z,89734.03
2023-02-11T14:31:43.321Z,89732.63
2023-02-11T14:34:28.535Z,89733.16
2023-02-11T14:37:13.069Z,89744.03
2023-02-11T14:39:57.965Z,89738.81
2023-02-11T14:42:42.693Z,89743.06
2023-02-11T14:45:27.997Z,89744.97
2023-02-11T14:48:12.810Z,89743.28
2023-02-11T14:50:57.611Z,89746.75
2023-02-11T14:53:42.445Z,89748.91
2023-02-11T14:56:27.149Z,89740.81
2023-02-11T14:59:12.012Z,89745.75
2023-02-11T15:01:56.919Z,89745.75
2023-02-11T15:04:42.091Z,89747.16
2023-02-11T15:07:26.854Z,89749.72
2023-02-11T15:10:11.755Z,89738.84
2023-02-11T15:12:56.516Z,89743.53
2023-02-11T15:15:41.289Z,89733.59
2023-02-11T15:18:25.922Z,89741.59
2023-02-11T15:21:10.792Z,89743.53
2023-02-11T15:23:55.644Z,89738.06
2023-02-11T15:26:40.317Z,89735.22
2023-02-11T15:29:25.167Z,89735.22
2023-02-11T15:32:10.002Z,89740.19
2023-02-11T15:34:55.238Z,89733.59
2023-02-11T15:37:39.978Z,89726.72
2023-02-11T15:40:24.707Z,89736.41
2023-02-11T15:43:09.681Z,89736.19
2023-02-11T15:45:54.369Z,89732.78
2023-02-11T15:48:39.118Z,89732.75
2023-02-11T15:51:23.803Z,89736.91
2023-02-11T15:54:08.631Z,89745.34
2023-02-11T15:56:53.223Z,89744.09
2023-02-11T15:59:37.992Z,89746.34
2023-02-11T16:02:22.816Z,89742.72
2023-02-11T16:05:07.545Z,89741.53
2023-02-11T16:07:52.533Z,89745.97
2023-02-11T16:10:37.221Z,89740.63
2023-02-11T16:13:21.973Z,89747.06
2023-02-11T16:16:06.697Z,89743.06
2023-02-11T16:19:03.431Z,89748.41
2023-02-11T16:21:49.402Z,89748.94
2023-02-11T16:24:34.150Z,89753.63
2023-02-11T16:27:18.819Z,89759.19
2023-02-11T16:30:03.601Z,89762.19
2023-02-11T16:32:48.210Z,89765.72
2023-02-11T16:35:32.931Z,89764.81
2023-02-11T16:38:17.559Z,89768.19
2023-02-11T16:41:02.272Z,89770.16
2023-02-11T16:43:47.088Z,89763.75
2023-02-11T16:46:32.342Z,89762.53
2023-02-11T16:49:17.156Z,89767.78
2023-02-11T16:52:01.945Z,89768.00
2023-02-11T16:54:46.780Z,89768.50
2023-02-11T16:57:31.589Z,89779.56
2023-02-11T17:00:16.486Z,89767.13
2023-02-11T17:03:01.049Z,89770.19
2023-02-11T17:05:55.034Z,89780.28
2023-02-11T17:08:40.683Z,89785.22
2023-02-11T17:11:25.534Z,89783.19
2023-02-11T17:14:10.427Z,89790.03
2023-02-11T17:16:55.256Z,89794.16
2023-02-11T17:19:39.845Z,89795.47
2023-02-11T17:22:24.660Z,89800.03
2023-02-11T17:25:09.499Z,89800.75
2023-02-11T17:27:54.470Z,89798.41
2023-02-11T17:30:39.191Z,89797.59
2023-02-11T17:33:23.953Z,89792.38
2023-02-11T17:36:08.645Z,89794.41
2023-02-11T17:38:53.415Z,89798.44
2023-02-11T17:41:38.334Z,89801.19
2023-02-11T17:44:23.053Z,89799.56
2023-02-11T17:47:07.921Z,89799.84
2023-02-11T17:49:52.695Z,89799.47
2023-02-11T17:52:37.392Z,89798.69
2023-02-11T17:55:22.325Z,89797.97
2023-02-11T17:58:07.172Z,89812.16
2023-02-11T18:00:51.881Z,89806.88
2023-02-11T18:03:36.570Z,89818.59
2023-02-11T18:06:21.398Z,89821.44
2023-02-11T18:09:06.260Z,89822.22
2023-02-11T18:11:50.973Z,89833.25
2023-02-11T18:14:35.668Z,89831.59
2023-02-11T18:17:20.513Z,89834.88
2023-02-11T18:20:05.231Z,89847.72
2023-02-11T18:22:50.149Z,89840.34
2023-02-11T18:25:34.737Z,89848.63
2023-02-11T18:28:19.527Z,89845.22
2023-02-11T18:31:04.413Z,89846.03
2023-02-11T18:33:49.192Z,89847.03
2023-02-11T18:36:34.114Z,89853.44
2023-02-11T18:39:18.784Z,89861.09
2023-02-11T18:42:03.686Z,89863.84
2023-02-11T18:44:48.411Z,89859.38
2023-02-11T18:47:33.283Z,89866.44
2023-02-11T18:50:18.044Z,89868.47
2023-02-11T18:53:02.814Z,89859.75
2023-02-11T18:55:47.654Z,89867.03
2023-02-11T18:58:32.611Z,89864.63
2023-02-11T19:01:17.779Z,89875.41
2023-02-11T19:04:02.844Z,89874.88
2023-02-11T19:06:48.011Z,89878.19
2023-02-11T19:09:32.951Z,89873.19
2023-02-11T19:12:17.729Z,89883.16
2023-02-11T19:15:02.442Z,89880.81
2023-02-11T19:17:47.407Z,89887.16
2023-02-11T19:20:32.006Z,89887.41
2023-02-11T19:23:16.687Z,89888.69
2023-02-11T19:26:01.263Z,89887.41
2023-02-11T19:28:46.019Z,89894.97
2023-02-11T19:31:30.959Z,89900.78
2023-02-11T19:34:16.096Z,89899.38
2023-02-11T19:37:00.942Z,89895.63
2023-02-11T19:39:45.568Z,89897.22
2023-02-11T19:42:30.368Z,89888.84
2023-02-11T19:45:15.149Z,89890.38
2023-02-11T19:47:59.953Z,89889.41
2023-02-11T19:50:45.115Z,89893.56
2023-02-11T19:53:29.977Z,89885.00
2023-02-11T19:56:14.714Z,89882.34
2023-02-11T19:58:59.673Z,89887.34
2023-02-11T20:01:44.634Z,89885.22
2023-02-11T20:04:29.337Z,89880.41
2023-02-11T20:07:14.072Z,89878.88
2023-02-11T20:09:58.749Z,89882.94
2023-02-11T20:12:43.707Z,89883.97
2023-02-11T20:15:28.655Z,89878.63
2023-02-11T20:18:13.271Z,89876.00
2023-02-11T20:20:57.922Z,89880.00
2023-02-11T20:23:42.600Z,89872.09
2023-02-11T20:26:27.362Z,89870.56
2023-02-11T20:29:12.053Z,89871.88
2023-02-11T20:31:57.107Z,89860.56
2023-02-11T20:34:42.218Z,89868.31
2023-02-11T20:37:26.930Z,89867.72
2023-02-11T20:40:11.576Z,89870.94
2023-02-11T20:42:56.493Z,89870.84
2023-02-11T20:45:41.131Z,89871.84
2023-02-11T20:48:25.729Z,89875.84
2023-02-11T20:51:10.496Z,89871.31
2023-02-11T20:53:55.309Z,89871.44
2023-02-11T20:56:40.178Z,89878.88
2023-02-11T20:59:24.951Z,89874.81
2023-02-11T21:02:10.232Z,89878.69
2023-02-11T21:04:55.419Z,89882.75
2023-02-11T21:07:40.448Z,89884.84
2023-02-11T21:10:25.352Z,89887.00
2023-02-11T21:13:10.055Z,89880.69
2023-02-11T21:15:55.154Z,89887.19
2023-02-11T21:18:40.562Z,89889.34
2023-02-11T21:21:25.291Z,89884.47
2023-02-11T21:24:10.055Z,89885.03
2023-02-11T21:26:55.165Z,89889.47
2023-02-11T21:29:52.799Z,89886.44
2023-02-11T21:32:39.047Z,89883.44
2023-02-11T21:35:23.729Z,89889.84
2023-02-11T21:38:08.471Z,89890.84
2023-02-11T21:40:53.388Z,89893.38
2023-02-11T21:43:38.626Z,89895.19
2023-02-11T21:46:23.572Z,89892.78
2023-02-11T21:49:08.648Z,89890.91
2023-02-11T21:51:53.370Z,89886.03
2023-02-11T21:54:38.043Z,89895.19
2023-02-11T21:57:22.909Z,89889.44
2023-02-11T22:00:07.793Z,89894.16
2023-02-11T22:02:52.531Z,89891.25
2023-02-11T22:05:37.198Z,89893.53
2023-02-11T22:08:22.167Z,89887.63
2023-02-11T22:11:07.370Z,89884.13
2023-02-11T22:13:52.129Z,89887.25
2023-02-11T22:16:37.070Z,89884.09
2023-02-11T22:19:21.846Z,89876.19
2023-02-11T22:22:06.513Z,89880.78
2023-02-11T22:24:51.201Z,89880.50
2023-02-11T22:27:36.085Z,89883.16
2023-02-11T22:30:20.880Z,89890.72
2023-02-11T22:33:05.763Z,89893.06
2023-02-11T22:35:50.454Z,89882.56
2023-02-11T22:38:35.291Z,89884.31
2023-02-11T22:41:19.996Z,89883.16
2023-02-11T22:44:04.855Z,89879.25
2023-02-11T22:46:49.610Z,89873.78
2023-02-11T22:49:34.305Z,89878.09
2023-02-11T22:52:21.462Z,89871.19
2023-02-11T22:55:06.263Z,89869.19
2023-02-11T22:57:51.200Z,89875.72
2023-02-11T23:00:35.927Z,89875.31
2023-02-11T23:03:20.746Z,89880.91
2023-02-11T23:06:05.411Z,89870.84
2023-02-11T23:08:50.215Z,89866.94
2023-02-11T23:11:34.973Z,89872.41
2023-02-11T23:14:19.666Z,89863.66
2023-02-11T23:17:04.402Z,89875.69
2023-02-11T23:19:49.276Z,89875.16
2023-02-11T23:22:34.028Z,89880.47
2023-02-11T23:25:18.793Z,89879.19
2023-02-11T23:28:03.724Z,89879.63
2023-02-11T23:30:48.446Z,89884.47
2023-02-11T23:33:33.334Z,89880.13
2023-02-11T23:36:18.063Z,89882.97
2023-02-11T23:39:02.871Z,89880.56
2023-02-11T23:41:47.655Z,89881.19
2023-02-11T23:44:32.370Z,89877.44
2023-02-11T23:47:17.113Z,89870.25
2023-02-11T23:50:01.839Z,89878.56
2023-02-11T23:52:46.702Z,89872.97
2023-02-11T23:55:31.465Z,89869.16
2023-02-11T23:58:16.225Z,89875.63
